sensor_id;sensor_type;location;lat;lon;timestamp;P1;durP1;ratioP1;P2;durP2;ratioP2
3006;SDS011;1513;47.650;10.720;2022-10-15T00:01:39;0.40;;;0.40;;
3006;SDS011;1513;47.650;10.720;2022-10-15T00:04:42;0.60;;;0.57;;
3006;SDS011;1513;47.650;10.720;2022-10-15T00:07:46;0.40;;;0.37;;
3006;SDS011;1513;47.650;10.720;2022-10-15T00:10:50;0.50;;;0.40;;
3006;SDS011;1513;47.650;10.720;2022-10-15T00:13:54;0.53;;;0.53;;
3006;SDS011;1513;47.650;10.720;2022-10-15T00:16:59;0.40;;;0.40;;
3006;SDS011;1513;47.650;10.720;2022-10-15T00:20:03;0.77;;;0.77;;
3006;SDS011;1513;47.650;10.720;2022-10-15T00:23:07;0.40;;;0.40;;
3006;SDS011;1513;47.650;10.720;2022-10-15T00:26:15;0.70;;;0.50;;
3006;SDS011;1513;47.650;10.720;2022-10-15T00:29:21;0.70;;;0.40;;
3006;SDS011;1513;47.650;10.720;2022-10-15T00:32:25;0.70;;;0.47;;
3006;SDS011;1513;47.650;10.720;2022-10-15T00:35:28;1.67;;;0.40;;
3006;SDS011;1513;47.650;10.720;2022-10-15T00:38:32;0.40;;;0.40;;
3006;SDS011;1513;47.650;10.720;2022-10-15T00:41:39;0.50;;;0.40;;
3006;SDS011;1513;47.650;10.720;2022-10-15T00:44:52;1.23;;;0.40;;
3006;SDS011;1513;47.650;10.720;2022-10-15T00:47:57;0.57;;;0.47;;
3006;SDS011;1513;47.650;10.720;2022-10-15T00:51:01;0.70;;;0.50;;
3006;SDS011;1513;47.650;10.720;2022-10-15T00:54:07;0.40;;;0.37;;
3006;SDS011;1513;47.650;10.720;2022-10-15T00:57:11;0.47;;;0.37;;
3006;SDS011;1513;47.650;10.720;2022-10-15T01:00:15;0.50;;;0.50;;
3006;SDS011;1513;47.650;10.720;2022-10-15T01:03:20;0.50;;;0.50;;
3006;SDS011;1513;47.650;10.720;2022-10-15T01:06:24;0.40;;;0.40;;
3006;SDS011;1513;47.650;10.720;2022-10-15T01:09:28;0.47;;;0.43;;
3006;SDS011;1513;47.650;10.720;2022-10-15T01:12:51;0.77;;;0.50;;
3006;SDS011;1513;47.650;10.720;2022-10-15T01:16:23;1.17;;;0.70;;
3006;SDS011;1513;47.650;10.720;2022-10-15T01:30:30;2.30;;;0.57;;
3006;SDS011;1513;47.650;10.720;2022-10-15T01:33:41;0.73;;;0.40;;
3006;SDS011;1513;47.650;10.720;2022-10-15T01:44:10;0.40;;;0.30;;
3006;SDS011;1513;47.650;10.720;2022-10-15T01:47:19;0.40;;;0.40;;
3006;SDS011;1513;47.650;10.720;2022-10-15T01:50:26;0.40;;;0.30;;
3006;SDS011;1513;47.650;10.720;2022-10-15T01:53:31;1.97;;;0.40;;
3006;SDS011;1513;47.650;10.720;2022-10-15T01:56:36;0.60;;;0.40;;
3006;SDS011;1513;47.650;10.720;2022-10-15T01:59:40;1.23;;;0.30;;
3006;SDS011;1513;47.650;10.720;2022-10-15T02:02:45;1.67;;;0.40;;
3006;SDS011;1513;47.650;10.720;2022-10-15T02:06:03;0.70;;;0.30;;
3006;SDS011;1513;47.650;10.720;2022-10-15T02:09:24;1.03;;;0.40;;
3006;SDS011;1513;47.650;10.720;2022-10-15T02:22:17;0.40;;;0.40;;
3006;SDS011;1513;47.650;10.720;2022-10-15T02:25:32;0.40;;;0.40;;
3006;SDS011;1513;47.650;10.720;2022-10-15T02:28:37;2.93;;;0.50;;
3006;SDS011;1513;47.650;10.720;2022-10-15T02:31:43;0.40;;;0.30;;
3006;SDS011;1513;47.650;10.720;2022-10-15T02:34:48;0.30;;;0.30;;
3006;SDS011;1513;47.650;10.720;2022-10-15T02:37:52;0.70;;;0.40;;
3006;SDS011;1513;47.650;10.720;2022-10-15T02:40:56;0.50;;;0.30;;
3006;SDS011;1513;47.650;10.720;2022-10-15T02:44:01;0.50;;;0.40;;
3006;SDS011;1513;47.650;10.720;2022-10-15T02:47:05;1.60;;;0.40;;
3006;SDS011;1513;47.650;10.720;2022-10-15T02:50:08;0.40;;;0.40;;
3006;SDS011;1513;47.650;10.720;2022-10-15T02:53:12;0.97;;;0.47;;
3006;SDS011;1513;47.650;10.720;2022-10-15T02:56:15;0.40;;;0.33;;
3006;SDS011;1513;47.650;10.720;2022-10-15T02:59:19;0.40;;;0.30;;
3006;SDS011;1513;47.650;10.720;2022-10-15T03:02:23;0.40;;;0.30;;
3006;SDS011;1513;47.650;10.720;2022-10-15T03:05:27;0.40;;;0.33;;
3006;SDS011;1513;47.650;10.720;2022-10-15T03:08:30;1.03;;;0.93;;
3006;SDS011;1513;47.650;10.720;2022-10-15T03:11:34;0.40;;;0.30;;
3006;SDS011;1513;47.650;10.720;2022-10-15T03:14:39;0.40;;;0.30;;
3006;SDS011;1513;47.650;10.720;2022-10-15T03:17:42;2.03;;;0.50;;
3006;SDS011;1513;47.650;10.720;2022-10-15T03:20:53;0.40;;;0.30;;
3006;SDS011;1513;47.650;10.720;2022-10-15T03:23:57;0.40;;;0.30;;
3006;SDS011;1513;47.650;10.720;2022-10-15T03:27:01;0.93;;;0.70;;
3006;SDS011;1513;47.650;10.720;2022-10-15T03:30:04;1.23;;;0.40;;
3006;SDS011;1513;47.650;10.720;2022-10-15T03:33:09;0.40;;;0.40;;
3006;SDS011;1513;47.650;10.720;2022-10-15T03:36:12;0.33;;;0.30;;
3006;SDS011;1513;47.650;10.720;2022-10-15T03:39:16;0.40;;;0.40;;
3006;SDS011;1513;47.650;10.720;2022-10-15T03:42:20;0.40;;;0.33;;
3006;SDS011;1513;47.650;10.720;2022-10-15T03:45:23;0.37;;;0.30;;
3006;SDS011;1513;47.650;10.720;2022-10-15T03:48:27;0.40;;;0.30;;
3006;SDS011;1513;47.650;10.720;2022-10-15T03:51:31;3.47;;;0.30;;
3006;SDS011;1513;47.650;10.720;2022-10-15T03:54:35;0.30;;;0.30;;
3006;SDS011;1513;47.650;10.720;2022-10-15T03:57:38;2.30;;;0.30;;
3006;SDS011;1513;47.650;10.720;2022-10-15T04:00:43;0.90;;;0.30;;
3006;SDS011;1513;47.650;10.720;2022-10-15T04:03:50;0.50;;;0.30;;
3006;SDS011;1513;47.650;10.720;2022-10-15T04:06:54;0.40;;;0.30;;
3006;SDS011;1513;47.650;10.720;2022-10-15T04:09:58;2.63;;;0.33;;
3006;SDS011;1513;47.650;10.720;2022-10-15T04:13:01;0.33;;;0.30;;
3006;SDS011;1513;47.650;10.720;2022-10-15T04:16:05;0.50;;;0.40;;
3006;SDS011;1513;47.650;10.720;2022-10-15T04:19:08;0.30;;;0.30;;
3006;SDS011;1513;47.650;10.720;2022-10-15T04:22:12;1.83;;;0.57;;
3006;SDS011;1513;47.650;10.720;2022-10-15T04:25:15;0.33;;;0.33;;
3006;SDS011;1513;47.650;10.720;2022-10-15T04:28:19;0.40;;;0.30;;
3006;SDS011;1513;47.650;10.720;2022-10-15T04:31:22;0.40;;;0.30;;
3006;SDS011;1513;47.650;10.720;2022-10-15T04:34:26;0.50;;;0.30;;
3006;SDS011;1513;47.650;10.720;2022-10-15T04:37:33;0.40;;;0.30;;
3006;SDS011;1513;47.650;10.720;2022-10-15T04:40:37;0.40;;;0.30;;
3006;SDS011;1513;47.650;10.720;2022-10-15T04:43:42;0.50;;;0.30;;
3006;SDS011;1513;47.650;10.720;2022-10-15T04:46:45;0.40;;;0.30;;
3006;SDS011;1513;47.650;10.720;2022-10-15T04:49:49;0.37;;;0.30;;
3006;SDS011;1513;47.650;10.720;2022-10-15T04:52:52;0.40;;;0.30;;
3006;SDS011;1513;47.650;10.720;2022-10-15T04:56:00;0.40;;;0.30;;
3006;SDS011;1513;47.650;10.720;2022-10-15T04:59:06;0.50;;;0.27;;
3006;SDS011;1513;47.650;10.720;2022-10-15T05:02:10;0.30;;;0.20;;
3006;SDS011;1513;47.650;10.720;2022-10-15T05:05:13;0.70;;;0.30;;
3006;SDS011;1513;47.650;10.720;2022-10-15T05:08:16;0.60;;;0.40;;
3006;SDS011;1513;47.650;10.720;2022-10-15T05:11:21;0.30;;;0.30;;
3006;SDS011;1513;47.650;10.720;2022-10-15T05:14:26;1.30;;;0.40;;
3006;SDS011;1513;47.650;10.720;2022-10-15T05:17:30;0.30;;;0.30;;
3006;SDS011;1513;47.650;10.720;2022-10-15T05:20:33;0.40;;;0.30;;
3006;SDS011;1513;47.650;10.720;2022-10-15T05:23:37;0.40;;;0.30;;
3006;SDS011;1513;47.650;10.720;2022-10-15T05:26:40;0.40;;;0.30;;
3006;SDS011;1513;47.650;10.720;2022-10-15T05:29:44;0.40;;;0.30;;
3006;SDS011;1513;47.650;10.720;2022-10-15T05:32:50;0.37;;;0.30;;
3006;SDS011;1513;47.650;10.720;2022-10-15T05:35:54;0.40;;;0.30;;
3006;SDS011;1513;47.650;10.720;2022-10-15T05:38:59;0.40;;;0.30;;
3006;SDS011;1513;47.650;10.720;2022-10-15T05:42:03;1.10;;;0.33;;
3006;SDS011;1513;47.650;10.720;2022-10-15T05:45:07;0.83;;;0.43;;
3006;SDS011;1513;47.650;10.720;2022-10-15T05:48:11;0.93;;;0.50;;
3006;SDS011;1513;47.650;10.720;2022-10-15T05:51:15;2.73;;;0.80;;
3006;SDS011;1513;47.650;10.720;2022-10-15T05:54:18;0.40;;;0.40;;
3006;SDS011;1513;47.650;10.720;2022-10-15T05:57:21;0.50;;;0.50;;
3006;SDS011;1513;47.650;10.720;2022-10-15T06:00:25;1.73;;;0.40;;
3006;SDS011;1513;47.650;10.720;2022-10-15T06:03:29;0.83;;;0.30;;
3006;SDS011;1513;47.650;10.720;2022-10-15T06:06:32;1.80;;;0.40;;
3006;SDS011;1513;47.650;10.720;2022-10-15T06:09:36;0.70;;;0.70;;
3006;SDS011;1513;47.650;10.720;2022-10-15T06:12:39;1.90;;;0.47;;
3006;SDS011;1513;47.650;10.720;2022-10-15T06:15:44;1.43;;;0.30;;
3006;SDS011;1513;47.650;10.720;2022-10-15T06:18:48;0.40;;;0.37;;
3006;SDS011;1513;47.650;10.720;2022-10-15T06:21:56;1.07;;;0.40;;
3006;SDS011;1513;47.650;10.720;2022-10-15T06:25:00;0.40;;;0.30;;
3006;SDS011;1513;47.650;10.720;2022-10-15T06:28:04;0.40;;;0.40;;
3006;SDS011;1513;47.650;10.720;2022-10-15T06:31:08;0.40;;;0.30;;
3006;SDS011;1513;47.650;10.720;2022-10-15T06:34:12;1.40;;;0.50;;
3006;SDS011;1513;47.650;10.720;2022-10-15T06:37:16;1.30;;;0.30;;
3006;SDS011;1513;47.650;10.720;2022-10-15T06:40:19;0.40;;;0.40;;
3006;SDS011;1513;47.650;10.720;2022-10-15T06:43:22;0.37;;;0.33;;
3006;SDS011;1513;47.650;10.720;2022-10-15T06:46:26;0.40;;;0.40;;
3006;SDS011;1513;47.650;10.720;2022-10-15T06:49:29;2.23;;;0.60;;
3006;SDS011;1513;47.650;10.720;2022-10-15T06:52:33;0.50;;;0.40;;
3006;SDS011;1513;47.650;10.720;2022-10-15T06:55:36;0.50;;;0.43;;
3006;SDS011;1513;47.650;10.720;2022-10-15T06:58:41;0.50;;;0.50;;
3006;SDS011;1513;47.650;10.720;2022-10-15T07:01:47;0.60;;;0.40;;
3006;SDS011;1513;47.650;10.720;2022-10-15T07:04:50;0.43;;;0.33;;
3006;SDS011;1513;47.650;10.720;2022-10-15T07:07:54;0.50;;;0.50;;
3006;SDS011;1513;47.650;10.720;2022-10-15T07:11:02;0.40;;;0.30;;
3006;SDS011;1513;47.650;10.720;2022-10-15T07:14:07;0.40;;;0.40;;
3006;SDS011;1513;47.650;10.720;2022-10-15T07:17:10;0.40;;;0.40;;
3006;SDS011;1513;47.650;10.720;2022-10-15T07:20:14;0.40;;;0.30;;
3006;SDS011;1513;47.650;10.720;2022-10-15T07:23:17;1.27;;;0.60;;
3006;SDS011;1513;47.650;10.720;2022-10-15T07:26:21;3.53;;;0.50;;
3006;SDS011;1513;47.650;10.720;2022-10-15T07:29:24;0.40;;;0.40;;
3006;SDS011;1513;47.650;10.720;2022-10-15T07:32:28;0.40;;;0.40;;
3006;SDS011;1513;47.650;10.720;2022-10-15T07:35:31;5.13;;;0.50;;
3006;SDS011;1513;47.650;10.720;2022-10-15T07:38:35;0.40;;;0.30;;
3006;SDS011;1513;47.650;10.720;2022-10-15T07:41:39;0.40;;;0.30;;
3006;SDS011;1513;47.650;10.720;2022-10-15T07:44:42;0.50;;;0.40;;
3006;SDS011;1513;47.650;10.720;2022-10-15T07:47:45;0.40;;;0.30;;
3006;SDS011;1513;47.650;10.720;2022-10-15T07:50:53;0.40;;;0.40;;
3006;SDS011;1513;47.650;10.720;2022-10-15T07:54:00;6.47;;;0.40;;
3006;SDS011;1513;47.650;10.720;2022-10-15T07:57:04;0.50;;;0.50;;
3006;SDS011;1513;47.650;10.720;2022-10-15T08:00:11;0.67;;;0.40;;
3006;SDS011;1513;47.650;10.720;2022-10-15T08:03:14;0.40;;;0.40;;
3006;SDS011;1513;47.650;10.720;2022-10-15T08:06:18;3.47;;;0.43;;
3006;SDS011;1513;47.650;10.720;2022-10-15T08:09:21;0.40;;;0.40;;
3006;SDS011;1513;47.650;10.720;2022-10-15T08:12:24;2.60;;;0.50;;
3006;SDS011;1513;47.650;10.720;2022-10-15T08:15:28;0.50;;;0.50;;
3006;SDS011;1513;47.650;10.720;2022-10-15T08:18:32;0.40;;;0.40;;
3006;SDS011;1513;47.650;10.720;2022-10-15T08:21:36;0.43;;;0.37;;
3006;SDS011;1513;47.650;10.720;2022-10-15T08:24:39;0.63;;;0.40;;
3006;SDS011;1513;47.650;10.720;2022-10-15T08:27:43;1.20;;;0.47;;
3006;SDS011;1513;47.650;10.720;2022-10-15T08:30:47;0.40;;;0.40;;
3006;SDS011;1513;47.650;10.720;2022-10-15T08:33:50;0.50;;;0.50;;
3006;SDS011;1513;47.650;10.720;2022-10-15T08:36:54;0.50;;;0.37;;
3006;SDS011;1513;47.650;10.720;2022-10-15T08:39:57;1.63;;;0.73;;
3006;SDS011;1513;47.650;10.720;2022-10-15T08:43:01;1.40;;;1.30;;
3006;SDS011;1513;47.650;10.720;2022-10-15T08:46:05;0.60;;;0.60;;
3006;SDS011;1513;47.650;10.720;2022-10-15T08:49:15;0.80;;;0.80;;
3006;SDS011;1513;47.650;10.720;2022-10-15T08:52:28;1.00;;;0.90;;
3006;SDS011;1513;47.650;10.720;2022-10-15T08:55:44;1.07;;;0.60;;
3006;SDS011;1513;47.650;10.720;2022-10-15T08:59:03;3.33;;;0.50;;
3006;SDS011;1513;47.650;10.720;2022-10-15T09:02:18;0.67;;;0.67;;
3006;SDS011;1513;47.650;10.720;2022-10-15T09:05:41;0.80;;;0.47;;
3006;SDS011;1513;47.650;10.720;2022-10-15T09:09:04;0.63;;;0.63;;
3006;SDS011;1513;47.650;10.720;2022-10-15T09:12:28;0.50;;;0.50;;
3006;SDS011;1513;47.650;10.720;2022-10-15T09:15:52;0.50;;;0.50;;
3006;SDS011;1513;47.650;10.720;2022-10-15T09:19:03;0.47;;;0.47;;
3006;SDS011;1513;47.650;10.720;2022-10-15T09:22:14;1.30;;;1.20;;
3006;SDS011;1513;47.650;10.720;2022-10-15T09:25:21;1.20;;;1.20;;
3006;SDS011;1513;47.650;10.720;2022-10-15T09:28:28;0.90;;;0.87;;
3006;SDS011;1513;47.650;10.720;2022-10-15T09:32:07;0.80;;;0.80;;
3006;SDS011;1513;47.650;10.720;2022-10-15T09:35:21;0.90;;;0.90;;
3006;SDS011;1513;47.650;10.720;2022-10-15T09:42:03;0.63;;;0.63;;
3006;SDS011;1513;47.650;10.720;2022-10-15T09:45:15;2.20;;;1.00;;
3006;SDS011;1513;47.650;10.720;2022-10-15T09:48:19;1.50;;;1.17;;
3006;SDS011;1513;47.650;10.720;2022-10-15T09:58:29;1.00;;;0.93;;
3006;SDS011;1513;47.650;10.720;2022-10-15T10:01:38;1.00;;;1.00;;
3006;SDS011;1513;47.650;10.720;2022-10-15T10:04:42;1.13;;;1.13;;
3006;SDS011;1513;47.650;10.720;2022-10-15T10:07:46;1.60;;;1.07;;
3006;SDS011;1513;47.650;10.720;2022-10-15T10:10:56;1.60;;;1.50;;
3006;SDS011;1513;47.650;10.720;2022-10-15T10:14:01;1.17;;;1.17;;
3006;SDS011;1513;47.650;10.720;2022-10-15T10:17:11;0.50;;;0.50;;
3006;SDS011;1513;47.650;10.720;2022-10-15T10:20:18;1.30;;;1.20;;
3006;SDS011;1513;47.650;10.720;2022-10-15T10:23:23;2.40;;;0.80;;
3006;SDS011;1513;47.650;10.720;2022-10-15T10:26:35;2.87;;;1.40;;
3006;SDS011;1513;47.650;10.720;2022-10-15T10:29:39;0.70;;;0.70;;
3006;SDS011;1513;47.650;10.720;2022-10-15T10:32:44;2.53;;;0.70;;
3006;SDS011;1513;47.650;10.720;2022-10-15T10:35:49;0.60;;;0.40;;
3006;SDS011;1513;47.650;10.720;2022-10-15T10:38:54;0.70;;;0.60;;
3006;SDS011;1513;47.650;10.720;2022-10-15T10:45:22;0.73;;;0.73;;
3006;SDS011;1513;47.650;10.720;2022-10-15T10:48:39;0.83;;;0.57;;
3006;SDS011;1513;47.650;10.720;2022-10-15T10:51:48;2.43;;;1.03;;
3006;SDS011;1513;47.650;10.720;2022-10-15T10:54:54;2.00;;;0.70;;
3006;SDS011;1513;47.650;10.720;2022-10-15T10:58:08;0.50;;;0.50;;
3006;SDS011;1513;47.650;10.720;2022-10-15T11:01:17;0.50;;;0.50;;
3006;SDS011;1513;47.650;10.720;2022-10-15T11:04:28;2.50;;;0.53;;
3006;SDS011;1513;47.650;10.720;2022-10-15T11:07:45;1.00;;;1.00;;
3006;SDS011;1513;47.650;10.720;2022-10-15T11:11:10;0.77;;;0.77;;
3006;SDS011;1513;47.650;10.720;2022-10-15T11:28:22;4.37;;;1.10;;
3006;SDS011;1513;47.650;10.720;2022-10-15T11:31:54;0.90;;;0.90;;
3006;SDS011;1513;47.650;10.720;2022-10-15T11:35:37;1.60;;;0.97;;
3006;SDS011;1513;47.650;10.720;2022-10-15T11:42:25;0.80;;;0.50;;
3006;SDS011;1513;47.650;10.720;2022-10-15T11:45:38;0.70;;;0.70;;
3006;SDS011;1513;47.650;10.720;2022-10-15T11:52:15;0.70;;;0.70;;
3006;SDS011;1513;47.650;10.720;2022-10-15T11:55:41;0.60;;;0.60;;
3006;SDS011;1513;47.650;10.720;2022-10-15T11:59:00;0.43;;;0.43;;
3006;SDS011;1513;47.650;10.720;2022-10-15T12:05:17;0.57;;;0.57;;
3006;SDS011;1513;47.650;10.720;2022-10-15T12:08:37;0.50;;;0.50;;
3006;SDS011;1513;47.650;10.720;2022-10-15T12:11:52;0.87;;;0.83;;
3006;SDS011;1513;47.650;10.720;2022-10-15T12:15:26;0.70;;;0.70;;
3006;SDS011;1513;47.650;10.720;2022-10-15T12:18:47;0.87;;;0.63;;
3006;SDS011;1513;47.650;10.720;2022-10-15T12:25:00;5.13;;;1.70;;
3006;SDS011;1513;47.650;10.720;2022-10-15T12:31:10;1.17;;;0.80;;
3006;SDS011;1513;47.650;10.720;2022-10-15T12:37:47;2.43;;;1.00;;
3006;SDS011;1513;47.650;10.720;2022-10-15T12:40:56;1.57;;;0.70;;
3006;SDS011;1513;47.650;10.720;2022-10-15T12:44:24;0.90;;;0.90;;
3006;SDS011;1513;47.650;10.720;2022-10-15T13:00:48;0.77;;;0.63;;
3006;SDS011;1513;47.650;10.720;2022-10-15T13:03:52;1.23;;;0.73;;
3006;SDS011;1513;47.650;10.720;2022-10-15T13:07:01;0.80;;;0.80;;
3006;SDS011;1513;47.650;10.720;2022-10-15T13:10:14;1.63;;;0.80;;
3006;SDS011;1513;47.650;10.720;2022-10-15T13:13:29;0.63;;;0.63;;
3006;SDS011;1513;47.650;10.720;2022-10-15T13:16:34;0.60;;;0.60;;
3006;SDS011;1513;47.650;10.720;2022-10-15T13:19:38;0.70;;;0.70;;
3006;SDS011;1513;47.650;10.720;2022-10-15T13:22:47;0.87;;;0.87;;
3006;SDS011;1513;47.650;10.720;2022-10-15T13:25:51;1.70;;;1.33;;
3006;SDS011;1513;47.650;10.720;2022-10-15T13:28:58;1.73;;;0.87;;
3006;SDS011;1513;47.650;10.720;2022-10-15T13:32:01;0.93;;;0.83;;
3006;SDS011;1513;47.650;10.720;2022-10-15T13:35:09;1.30;;;1.03;;
3006;SDS011;1513;47.650;10.720;2022-10-15T13:38:22;1.40;;;1.00;;
3006;SDS011;1513;47.650;10.720;2022-10-15T13:41:27;3.27;;;1.10;;
3006;SDS011;1513;47.650;10.720;2022-10-15T13:44:33;1.60;;;1.50;;
3006;SDS011;1513;47.650;10.720;2022-10-15T13:47:39;1.50;;;1.40;;
3006;SDS011;1513;47.650;10.720;2022-10-15T13:50:45;1.47;;;0.90;;
3006;SDS011;1513;47.650;10.720;2022-10-15T13:53:49;1.30;;;0.97;;
3006;SDS011;1513;47.650;10.720;2022-10-15T13:56:53;0.70;;;0.70;;
3006;SDS011;1513;47.650;10.720;2022-10-15T14:00:00;0.60;;;0.60;;
3006;SDS011;1513;47.650;10.720;2022-10-15T14:03:18;0.77;;;0.77;;
3006;SDS011;1513;47.650;10.720;2022-10-15T14:06:28;0.80;;;0.80;;
3006;SDS011;1513;47.650;10.720;2022-10-15T14:09:36;0.80;;;0.80;;
3006;SDS011;1513;47.650;10.720;2022-10-15T14:12:41;2.83;;;0.93;;
3006;SDS011;1513;47.650;10.720;2022-10-15T14:15:50;1.00;;;1.00;;
3006;SDS011;1513;47.650;10.720;2022-10-15T14:19:13;2.23;;;2.03;;
3006;SDS011;1513;47.650;10.720;2022-10-15T14:22:19;3.60;;;3.30;;
3006;SDS011;1513;47.650;10.720;2022-10-15T14:25:25;1.37;;;1.37;;
3006;SDS011;1513;47.650;10.720;2022-10-15T14:28:30;1.20;;;1.10;;
3006;SDS011;1513;47.650;10.720;2022-10-15T14:31:36;0.90;;;0.90;;
3006;SDS011;1513;47.650;10.720;2022-10-15T14:34:41;13.03;;;10.87;;
3006;SDS011;1513;47.650;10.720;2022-10-15T14:37:44;3.83;;;3.53;;
3006;SDS011;1513;47.650;10.720;2022-10-15T14:40:58;2.07;;;1.90;;
3006;SDS011;1513;47.650;10.720;2022-10-15T14:47:30;3.20;;;1.60;;
3006;SDS011;1513;47.650;10.720;2022-10-15T14:50:35;2.00;;;1.80;;
3006;SDS011;1513;47.650;10.720;2022-10-15T14:53:43;2.27;;;1.87;;
3006;SDS011;1513;47.650;10.720;2022-10-15T14:56:48;1.50;;;1.40;;
3006;SDS011;1513;47.650;10.720;2022-10-15T14:59:53;1.10;;;1.00;;
3006;SDS011;1513;47.650;10.720;2022-10-15T15:02:58;1.07;;;1.03;;
3006;SDS011;1513;47.650;10.720;2022-10-15T15:06:06;1.90;;;1.60;;
3006;SDS011;1513;47.650;10.720;2022-10-15T15:09:10;9.60;;;5.20;;
3006;SDS011;1513;47.650;10.720;2022-10-15T15:12:14;15.93;;;9.97;;
3006;SDS011;1513;47.650;10.720;2022-10-15T15:15:24;28.80;;;7.93;;
3006;SDS011;1513;47.650;10.720;2022-10-15T15:18:29;17.53;;;5.07;;
3006;SDS011;1513;47.650;10.720;2022-10-15T15:21:32;10.10;;;2.53;;
3006;SDS011;1513;47.650;10.720;2022-10-15T15:24:36;5.73;;;1.77;;
3006;SDS011;1513;47.650;10.720;2022-10-15T15:27:40;2.03;;;1.50;;
3006;SDS011;1513;47.650;10.720;2022-10-15T15:30:43;4.03;;;2.33;;
3006;SDS011;1513;47.650;10.720;2022-10-15T15:33:47;5.40;;;1.90;;
3006;SDS011;1513;47.650;10.720;2022-10-15T15:36:50;1.73;;;1.63;;
3006;SDS011;1513;47.650;10.720;2022-10-15T15:39:54;1.47;;;1.33;;
3006;SDS011;1513;47.650;10.720;2022-10-15T15:42:57;3.53;;;1.43;;
3006;SDS011;1513;47.650;10.720;2022-10-15T15:46:01;1.70;;;1.23;;
3006;SDS011;1513;47.650;10.720;2022-10-15T15:49:04;2.30;;;1.30;;
3006;SDS011;1513;47.650;10.720;2022-10-15T15:52:09;2.00;;;1.63;;
3006;SDS011;1513;47.650;10.720;2022-10-15T15:55:15;11.63;;;3.10;;
3006;SDS011;1513;47.650;10.720;2022-10-15T15:58:19;2.20;;;2.00;;
3006;SDS011;1513;47.650;10.720;2022-10-15T16:01:22;3.80;;;2.00;;
3006;SDS011;1513;47.650;10.720;2022-10-15T16:04:26;8.43;;;2.60;;
3006;SDS011;1513;47.650;10.720;2022-10-15T16:07:29;3.23;;;2.50;;
3006;SDS011;1513;47.650;10.720;2022-10-15T16:10:33;1.83;;;1.53;;
3006;SDS011;1513;47.650;10.720;2022-10-15T16:13:37;1.77;;;1.60;;
3006;SDS011;1513;47.650;10.720;2022-10-15T16:16:42;4.67;;;2.30;;
3006;SDS011;1513;47.650;10.720;2022-10-15T16:19:46;4.00;;;2.93;;
3006;SDS011;1513;47.650;10.720;2022-10-15T16:22:50;11.17;;;3.00;;
3006;SDS011;1513;47.650;10.720;2022-10-15T16:25:54;4.53;;;3.20;;
3006;SDS011;1513;47.650;10.720;2022-10-15T16:28:59;3.63;;;2.20;;
3006;SDS011;1513;47.650;10.720;2022-10-15T16:32:03;6.20;;;2.30;;
3006;SDS011;1513;47.650;10.720;2022-10-15T16:35:06;16.40;;;8.30;;
3006;SDS011;1513;47.650;10.720;2022-10-15T16:38:10;9.33;;;4.40;;
3006;SDS011;1513;47.650;10.720;2022-10-15T16:41:14;11.67;;;5.80;;
3006;SDS011;1513;47.650;10.720;2022-10-15T16:44:20;7.00;;;4.20;;
3006;SDS011;1513;47.650;10.720;2022-10-15T16:47:24;5.43;;;4.00;;
3006;SDS011;1513;47.650;10.720;2022-10-15T16:50:27;8.40;;;5.40;;
3006;SDS011;1513;47.650;10.720;2022-10-15T16:53:31;4.30;;;2.33;;
3006;SDS011;1513;47.650;10.720;2022-10-15T16:56:35;2.60;;;2.40;;
3006;SDS011;1513;47.650;10.720;2022-10-15T16:59:39;4.13;;;2.43;;
3006;SDS011;1513;47.650;10.720;2022-10-15T17:02:42;3.90;;;2.60;;
3006;SDS011;1513;47.650;10.720;2022-10-15T17:05:46;1.90;;;1.80;;
3006;SDS011;1513;47.650;10.720;2022-10-15T17:08:50;3.90;;;1.30;;
3006;SDS011;1513;47.650;10.720;2022-10-15T17:11:55;1.30;;;1.10;;
3006;SDS011;1513;47.650;10.720;2022-10-15T17:14:59;4.40;;;1.80;;
3006;SDS011;1513;47.650;10.720;2022-10-15T17:18:02;1.13;;;1.13;;
3006;SDS011;1513;47.650;10.720;2022-10-15T17:21:09;1.60;;;1.30;;
3006;SDS011;1513;47.650;10.720;2022-10-15T17:24:15;3.07;;;1.83;;
3006;SDS011;1513;47.650;10.720;2022-10-15T17:27:19;2.20;;;2.00;;
3006;SDS011;1513;47.650;10.720;2022-10-15T17:30:22;3.80;;;2.40;;
3006;SDS011;1513;47.650;10.720;2022-10-15T17:33:26;1.70;;;1.60;;
3006;SDS011;1513;47.650;10.720;2022-10-15T17:36:29;3.13;;;2.00;;
3006;SDS011;1513;47.650;10.720;2022-10-15T17:39:34;2.10;;;1.90;;
3006;SDS011;1513;47.650;10.720;2022-10-15T17:42:37;3.63;;;2.23;;
3006;SDS011;1513;47.650;10.720;2022-10-15T17:45:44;7.00;;;2.00;;
3006;SDS011;1513;47.650;10.720;2022-10-15T17:48:48;1.90;;;1.80;;
3006;SDS011;1513;47.650;10.720;2022-10-15T17:51:51;3.93;;;3.30;;
3006;SDS011;1513;47.650;10.720;2022-10-15T17:54:55;7.97;;;4.93;;
3006;SDS011;1513;47.650;10.720;2022-10-15T17:57:59;7.00;;;4.73;;
3006;SDS011;1513;47.650;10.720;2022-10-15T18:01:03;10.53;;;5.20;;
3006;SDS011;1513;47.650;10.720;2022-10-15T18:04:06;11.93;;;5.97;;
3006;SDS011;1513;47.650;10.720;2022-10-15T18:07:11;7.53;;;4.10;;
3006;SDS011;1513;47.650;10.720;2022-10-15T18:10:18;6.27;;;4.37;;
3006;SDS011;1513;47.650;10.720;2022-10-15T18:13:22;7.63;;;4.50;;
3006;SDS011;1513;47.650;10.720;2022-10-15T18:16:25;6.37;;;4.47;;
3006;SDS011;1513;47.650;10.720;2022-10-15T18:19:29;11.13;;;4.90;;
3006;SDS011;1513;47.650;10.720;2022-10-15T18:22:32;14.17;;;5.93;;
3006;SDS011;1513;47.650;10.720;2022-10-15T18:25:36;15.97;;;4.93;;
3006;SDS011;1513;47.650;10.720;2022-10-15T18:28:40;3.23;;;2.80;;
3006;SDS011;1513;47.650;10.720;2022-10-15T18:31:44;9.10;;;2.60;;
3006;SDS011;1513;47.650;10.720;2022-10-15T18:34:48;12.13;;;5.30;;
3006;SDS011;1513;47.650;10.720;2022-10-15T18:37:52;8.30;;;3.43;;
3006;SDS011;1513;47.650;10.720;2022-10-15T18:40:55;2.20;;;2.00;;
3006;SDS011;1513;47.650;10.720;2022-10-15T18:44:00;1.40;;;1.30;;
3006;SDS011;1513;47.650;10.720;2022-10-15T18:47:04;2.70;;;1.00;;
3006;SDS011;1513;47.650;10.720;2022-10-15T18:50:08;2.80;;;2.60;;
3006;SDS011;1513;47.650;10.720;2022-10-15T18:53:12;1.53;;;1.37;;
3006;SDS011;1513;47.650;10.720;2022-10-15T18:56:16;2.20;;;1.03;;
3006;SDS011;1513;47.650;10.720;2022-10-15T18:59:19;2.03;;;1.00;;
3006;SDS011;1513;47.650;10.720;2022-10-15T19:02:23;1.90;;;1.60;;
3006;SDS011;1513;47.650;10.720;2022-10-15T19:05:27;2.30;;;1.43;;
3006;SDS011;1513;47.650;10.720;2022-10-15T19:08:31;1.70;;;1.60;;
3006;SDS011;1513;47.650;10.720;2022-10-15T19:11:35;2.30;;;2.10;;
3006;SDS011;1513;47.650;10.720;2022-10-15T19:14:39;3.30;;;2.40;;
3006;SDS011;1513;47.650;10.720;2022-10-15T19:17:45;5.00;;;2.47;;
3006;SDS011;1513;47.650;10.720;2022-10-15T19:20:48;2.80;;;2.47;;
3006;SDS011;1513;47.650;10.720;2022-10-15T19:23:52;3.63;;;2.60;;
3006;SDS011;1513;47.650;10.720;2022-10-15T19:26:56;5.90;;;3.30;;
3006;SDS011;1513;47.650;10.720;2022-10-15T19:29:59;4.13;;;1.50;;
3006;SDS011;1513;47.650;10.720;2022-10-15T19:33:03;4.47;;;2.13;;
3006;SDS011;1513;47.650;10.720;2022-10-15T19:36:09;3.20;;;2.17;;
3006;SDS011;1513;47.650;10.720;2022-10-15T19:39:15;2.50;;;2.17;;
3006;SDS011;1513;47.650;10.720;2022-10-15T19:42:20;5.43;;;1.40;;
3006;SDS011;1513;47.650;10.720;2022-10-15T19:45:23;3.07;;;2.17;;
3006;SDS011;1513;47.650;10.720;2022-10-15T19:48:27;2.73;;;2.10;;
3006;SDS011;1513;47.650;10.720;2022-10-15T19:51:30;2.90;;;1.70;;
3006;SDS011;1513;47.650;10.720;2022-10-15T19:54:34;1.73;;;1.30;;
3006;SDS011;1513;47.650;10.720;2022-10-15T19:57:38;6.40;;;1.20;;
3006;SDS011;1513;47.650;10.720;2022-10-15T20:00:41;1.53;;;1.30;;
3006;SDS011;1513;47.650;10.720;2022-10-15T20:03:50;1.23;;;1.13;;
3006;SDS011;1513;47.650;10.720;2022-10-15T20:06:55;1.23;;;1.13;;
3006;SDS011;1513;47.650;10.720;2022-10-15T20:09:58;1.90;;;0.77;;
3006;SDS011;1513;47.650;10.720;2022-10-15T20:13:02;0.93;;;0.70;;
3006;SDS011;1513;47.650;10.720;2022-10-15T20:16:06;1.43;;;0.97;;
3006;SDS011;1513;47.650;10.720;2022-10-15T20:19:11;2.80;;;0.90;;
3006;SDS011;1513;47.650;10.720;2022-10-15T20:22:15;1.03;;;1.03;;
3006;SDS011;1513;47.650;10.720;2022-10-15T20:25:18;2.30;;;0.90;;
3006;SDS011;1513;47.650;10.720;2022-10-15T20:28:21;2.10;;;1.20;;
3006;SDS011;1513;47.650;10.720;2022-10-15T20:31:25;4.87;;;1.87;;